createdAt,value
2022-12-01T00:00:40.521Z,6.40
2022-12-01T00:03:09.097Z,6.03
2022-12-01T00:06:04.858Z,7.63
2022-12-01T00:09:20.152Z,5.18
2022-12-01T00:11:59.113Z,5.63
2022-12-01T00:17:53.060Z,7.15
2022-12-01T00:20:21.410Z,7.05
2022-12-01T00:22:50.635Z,7.07
2022-12-01T00:25:22.671Z,7.03
2022-12-01T00:27:51.688Z,6.38
2022-12-01T00:30:27.917Z,6.85
2022-12-01T00:32:56.294Z,7.20
2022-12-01T00:35:28.332Z,5.90
2022-12-01T00:38:04.379Z,8.18
2022-12-01T00:40:33.105Z,7.68
2022-12-01T00:43:02.343Z,6.90
2022-12-01T00:45:53.293Z,7.68
2022-12-01T00:48:22.855Z,5.18
2022-12-01T00:50:55.612Z,7.80
2022-12-01T00:53:30.294Z,6.40
2022-12-01T00:56:04.878Z,8.13
2022-12-01T00:58:38.429Z,8.10
2022-12-01T01:01:08.285Z,5.70
2022-12-01T01:03:36.678Z,5.93
2022-12-01T01:06:07.366Z,6.50
2022-12-01T01:08:36.230Z,6.30
2022-12-01T01:11:05.764Z,5.53
2022-12-01T01:13:34.980Z,7.30
2022-12-01T01:16:05.375Z,7.60
2022-12-01T01:18:35.805Z,6.70
2022-12-01T01:21:06.626Z,5.68
2022-12-01T01:23:35.425Z,6.53
2022-12-01T01:26:05.216Z,5.80
2022-12-01T01:28:34.013Z,7.05
2022-12-01T01:31:06.754Z,7.10
2022-12-01T01:33:36.723Z,6.72
2022-12-01T01:36:06.440Z,6.68
2022-12-01T01:38:35.541Z,5.82
2022-12-01T01:41:04.684Z,7.95
2022-12-01T01:43:44.855Z,5.80
2022-12-01T01:46:15.741Z,5.53
2022-12-01T01:48:48.804Z,7.20
2022-12-01T01:51:21.974Z,6.57
2022-12-01T01:53:53.097Z,7.13
2022-12-01T01:56:21.331Z,8.43
2022-12-01T01:58:50.072Z,7.05
2022-12-01T02:01:18.388Z,4.88
2022-12-01T02:03:49.504Z,7.80
2022-12-01T02:06:18.101Z,5.25
2022-12-01T02:08:46.255Z,8.45
2022-12-01T02:11:48.422Z,6.32
2022-12-01T02:14:46.714Z,4.30
2022-12-01T02:17:25.523Z,6.20
2022-12-01T02:20:18.090Z,5.30
2022-12-01T02:22:59.083Z,4.15
2022-12-01T02:25:38.140Z,6.30
2022-12-01T02:28:28.373Z,4.90
2022-12-01T02:31:01.997Z,4.50
2022-12-01T02:33:37.473Z,4.43
2022-12-01T02:36:12.445Z,3.55
2022-12-01T02:38:47.117Z,4.72
2022-12-01T02:41:21.272Z,6.85
2022-12-01T02:43:56.416Z,4.63
2022-12-01T02:46:30.517Z,5.25
2022-12-01T02:49:02.075Z,3.67
2022-12-01T02:51:33.125Z,3.83
2022-12-01T02:54:03.599Z,5.10
2022-12-01T02:56:31.841Z,6.20
2022-12-01T02:59:00.001Z,4.50
2022-12-01T03:01:43.703Z,5.40
2022-12-01T03:04:30.903Z,4.90
2022-12-01T03:07:09.304Z,4.55
2022-12-01T03:09:47.839Z,7.47
2022-12-01T03:12:24.077Z,4.57
2022-12-01T03:15:01.607Z,3.67
2022-12-01T03:17:37.218Z,4.72
2022-12-01T03:20:11.723Z,6.07
2022-12-01T03:22:44.857Z,4.18
2022-12-01T03:25:14.861Z,6.68
2022-12-01T03:28:13.447Z,3.63
2022-12-01T03:30:36.433Z,3.80
2022-12-01T03:33:10.682Z,4.20
2022-12-01T03:35:42.970Z,4.68
2022-12-01T03:38:18.483Z,6.95
2022-12-01T03:40:49.219Z,3.90
2022-12-01T03:43:21.900Z,4.22
2022-12-01T03:45:57.842Z,6.78
2022-12-01T03:48:28.751Z,4.20
2022-12-01T03:51:06.668Z,4.93
2022-12-01T03:53:43.289Z,4.22
2022-12-01T03:56:13.226Z,6.38
2022-12-01T03:58:46.260Z,6.03
2022-12-01T04:01:14.579Z,6.00
2022-12-01T04:03:47.067Z,5.05
2022-12-01T04:06:15.571Z,5.72
2022-12-01T04:08:43.646Z,4.25
2022-12-01T04:11:32.624Z,5.00
2022-12-01T04:14:02.047Z,4.63
2022-12-01T04:16:30.254Z,5.35
2022-12-01T04:18:59.858Z,5.72
2022-12-01T04:21:28.043Z,5.47
2022-12-01T04:24:01.870Z,6.63
2022-12-01T04:26:31.119Z,5.32
2022-12-01T04:28:59.912Z,5.63
2022-12-01T04:31:28.229Z,5.80
2022-12-01T04:33:56.934Z,5.47
2022-12-01T04:36:27.691Z,6.03
2022-12-01T04:38:55.866Z,5.18
2022-12-01T04:41:23.940Z,7.20
2022-12-01T04:43:53.907Z,7.10
2022-12-01T04:46:22.827Z,5.93
2022-12-01T04:48:51.252Z,8.50
2022-12-01T04:51:21.289Z,6.78
2022-12-01T04:53:50.767Z,7.05
2022-12-01T04:56:19.034Z,7.28
2022-12-01T04:58:47.226Z,8.57
2022-12-01T05:01:17.730Z,7.68
2022-12-01T05:03:49.276Z,8.98
2022-12-01T05:06:19.288Z,9.82
2022-12-01T05:08:48.196Z,9.45
2022-12-01T05:11:18.324Z,11.55
2022-12-01T05:13:48.397Z,9.00
2022-12-01T05:16:18.702Z,12.48
2022-12-01T05:18:49.913Z,11.80
2022-12-01T05:21:18.093Z,11.52
2022-12-01T05:23:46.464Z,9.77
2022-12-01T05:26:14.459Z,12.40
2022-12-01T05:28:43.793Z,11.85
2022-12-01T05:31:11.895Z,11.27
2022-12-01T05:33:39.943Z,11.52
2022-12-01T05:36:08.556Z,13.90
2022-12-01T05:38:36.550Z,16.95
2022-12-01T05:41:04.965Z,13.55
2022-12-01T05:43:33.010Z,14.13
2022-12-01T05:46:02.774Z,15.68
2022-12-01T05:48:30.871Z,12.95
2022-12-01T05:50:58.911Z,13.38
2022-12-01T05:53:27.004Z,12.38
2022-12-01T05:55:55.517Z,11.50
2022-12-01T05:58:23.922Z,16.35
2022-12-01T06:00:52.310Z,17.85
2022-12-01T06:03:21.714Z,14.43
2022-12-01T06:05:49.877Z,14.73
2022-12-01T06:08:17.983Z,14.40
2022-12-01T06:10:46.097Z,12.63
2022-12-01T06:13:14.196Z,16.15
2022-12-01T06:15:42.226Z,16.42
2022-12-01T06:18:10.340Z,12.48
2022-12-01T06:20:39.723Z,16.25
2022-12-01T06:23:08.372Z,14.57
2022-12-01T06:25:36.461Z,16.27
2022-12-01T06:28:04.771Z,12.68
2022-12-01T06:30:32.834Z,14.85
2022-12-01T06:33:00.842Z,12.07
2022-12-01T06:35:28.960Z,13.98
2022-12-01T06:37:58.323Z,11.77
2022-12-01T06:40:26.485Z,12.07
2022-12-01T06:42:54.518Z,13.38
2022-12-01T06:45:22.584Z,13.73
2022-12-01T06:47:54.466Z,13.77
2022-12-01T06:50:22.519Z,11.73
2022-12-01T06:52:50.563Z,15.02
2022-12-01T06:55:20.235Z,13.32
2022-12-01T06:57:48.511Z,14.68
2022-12-01T07:00:17.636Z,14.30
2022-12-01T07:02:46.023Z,11.95
2022-12-01T07:05:14.166Z,15.85
2022-12-01T07:07:42.272Z,13.40
2022-12-01T07:10:11.586Z,13.02
2022-12-01T07:12:41.403Z,12.85
2022-12-01T07:15:10.555Z,12.00
2022-12-01T07:17:38.675Z,12.02
2022-12-01T07:20:10.074Z,12.63
2022-12-01T07:22:38.689Z,12.43
2022-12-01T07:25:07.923Z,10.77
2022-12-01T07:27:36.408Z,11.02
2022-12-01T07:30:07.192Z,8.20
2022-12-01T07:32:35.170Z,11.07
2022-12-01T07:35:03.195Z,12.52
2022-12-01T07:37:31.198Z,10.52
2022-12-01T07:39:59.206Z,14.07
2022-12-01T07:42:27.223Z,12.98
2022-12-01T07:44:55.256Z,10.55
2022-12-01T07:47:24.670Z,15.10
2022-12-01T07:49:52.662Z,14.70
2022-12-01T07:52:21.134Z,14.45
2022-12-01T07:54:49.142Z,11.85
2022-12-01T07:57:18.157Z,20.60
2022-12-01T07:59:46.436Z,19.42
2022-12-01T08:02:14.805Z,18.85
2022-12-01T08:04:44.271Z,14.52
2022-12-01T08:07:12.264Z,11.43
2022-12-01T08:09:40.262Z,13.68
2022-12-01T08:12:09.359Z,14.50
2022-12-01T08:14:37.410Z,9.82
2022-12-01T08:17:05.428Z,12.35
2022-12-01T08:19:33.476Z,13.32
2022-12-01T08:22:02.824Z,12.40
2022-12-01T08:24:30.912Z,15.10
2022-12-01T08:26:59.007Z,12.95
2022-12-01T08:29:26.997Z,11.73
2022-12-01T08:31:55.022Z,12.80
2022-12-01T08:34:23.006Z,12.07
2022-12-01T08:36:51.105Z,12.70
2022-12-01T08:39:20.623Z,9.93
2022-12-01T08:41:48.794Z,11.75
2022-12-01T08:44:16.959Z,13.27
2022-12-01T08:46:45.206Z,12.05
2022-12-01T08:49:13.239Z,13.90
2022-12-01T08:51:41.320Z,11.98
2022-12-01T08:54:11.452Z,11.30
2022-12-01T08:56:43.795Z,12.45
2022-12-01T08:59:12.112Z,9.70
2022-12-01T09:01:51.821Z,8.45
2022-12-01T09:04:21.018Z,8.85
2022-12-01T09:06:50.828Z,8.85
2022-12-01T09:09:20.991Z,9.48
2022-12-01T09:11:52.149Z,8.23
2022-12-01T09:14:21.463Z,10.40
2022-12-01T09:16:50.924Z,10.15
2022-12-01T09:19:24.743Z,8.90
2022-12-01T09:21:53.599Z,9.13
2022-12-01T09:24:22.062Z,9.60
2022-12-01T09:26:55.557Z,8.40
2022-12-01T09:29:23.723Z,7.53
2022-12-01T09:31:52.417Z,7.53
2022-12-01T09:34:21.343Z,9.95
2022-12-01T09:36:49.685Z,7.43
2022-12-01T09:39:19.686Z,9.77
2022-12-01T09:41:51.182Z,8.82
2022-12-01T09:44:39.482Z,10.43
2022-12-01T09:47:12.691Z,10.07
2022-12-01T09:49:50.687Z,7.78
2022-12-01T09:52:20.618Z,8.63
2022-12-01T09:54:48.883Z,7.53
2022-12-01T09:57:23.892Z,9.02
2022-12-01T09:59:54.247Z,11.18
2022-12-01T10:02:30.317Z,9.40
2022-12-01T10:05:01.736Z,11.57
2022-12-01T10:07:34.110Z,6.75
2022-12-01T10:10:06.040Z,24.98
2022-12-01T10:12:35.855Z,10.30
2022-12-01T10:15:22.498Z,10.35
2022-12-01T10:18:00.130Z,10.25
2022-12-01T10:20:33.970Z,12.45
2022-12-01T10:23:22.491Z,10.32
2022-12-01T10:25:57.833Z,10.65
2022-12-01T10:28:54.057Z,11.45
2022-12-01T10:31:30.214Z,14.63
2022-12-01T10:34:01.640Z,13.80
2022-12-01T10:36:31.687Z,12.63
2022-12-01T10:39:00.252Z,13.85
2022-12-01T10:41:32.098Z,17.25
2022-12-01T10:44:01.312Z,14.75
2022-12-01T10:46:38.430Z,12.40
2022-12-01T10:49:10.904Z,13.88
2022-12-01T10:52:00.178Z,15.23
2022-12-01T10:54:34.544Z,22.25
2022-12-01T10:57:02.942Z,16.52
2022-12-01T10:59:36.261Z,18.65
2022-12-01T11:02:15.740Z,20.73
2022-12-01T11:04:47.015Z,19.23
2022-12-01T11:07:21.651Z,16.63
2022-12-01T11:10:16.145Z,20.60
2022-12-01T11:12:46.682Z,21.75
2022-12-01T11:15:22.120Z,20.42
2022-12-01T11:17:59.055Z,20.55
2022-12-01T11:20:34.251Z,20.80
2022-12-01T11:23:28.121Z,25.23
2022-12-01T11:26:13.320Z,28.70
2022-12-01T11:28:52.104Z,21.02
2022-12-01T11:31:21.645Z,21.98
2022-12-01T11:33:54.392Z,23.30
2022-12-01T11:36:26.475Z,28.23
2022-12-01T11:38:59.218Z,21.65
2022-12-01T11:41:31.984Z,28.80
2022-12-01T11:44:02.760Z,23.42
2022-12-01T11:46:36.975Z,27.52
2022-12-01T11:49:07.333Z,26.63
2022-12-01T11:51:37.570Z,28.60
2022-12-01T11:54:14.049Z,29.27
2022-12-01T11:56:43.978Z,31.10
2022-12-01T11:59:14.888Z,29.48
2022-12-01T12:02:00.285Z,31.67
2022-12-01T12:04:49.340Z,30.10
2022-12-01T12:07:27.600Z,34.33
2022-12-01T12:10:06.932Z,29.60
2022-12-01T12:12:47.179Z,29.38
2022-12-01T12:15:26.843Z,35.95
2022-12-01T12:18:14.349Z,30.25
2022-12-01T12:20:58.116Z,33.42
2022-12-01T12:23:47.524Z,26.73
2022-12-01T12:26:20.188Z,30.85
2022-12-01T12:29:18.076Z,28.50
2022-12-01T12:31:56.243Z,25.33
2022-12-01T12:34:44.423Z,25.65
2022-12-01T12:37:25.805Z,32.97
2022-12-01T12:40:15.447Z,29.48
2022-12-01T12:42:52.985Z,30.10
2022-12-01T12:45:27.827Z,26.85
2022-12-01T12:48:17.885Z,24.63
2022-12-01T12:50:53.917Z,26.13
2022-12-01T12:53:32.751Z,25.38
2022-12-01T12:56:05.715Z,31.38
2022-12-01T12:58:39.245Z,27.23
2022-12-01T13:01:14.699Z,23.98
2022-12-01T13:03:50.194Z,24.67
2022-12-01T13:06:25.625Z,33.97
2022-12-01T13:09:00.099Z,28.80
2022-12-01T13:11:33.704Z,29.00
2022-12-01T13:14:07.487Z,28.73
2022-12-01T13:16:38.275Z,29.73
2022-12-01T13:19:13.083Z,34.72
2022-12-01T13:21:44.549Z,38.53
2022-12-01T13:24:22.730Z,39.47
2022-12-01T13:26:54.160Z,40.17
2022-12-01T13:29:25.892Z,40.42
2022-12-01T13:31:55.464Z,37.60
2022-12-01T13:34:27.216Z,37.15
2022-12-01T13:36:57.127Z,33.13
2022-12-01T13:39:28.629Z,37.30
2022-12-01T13:42:03.346Z,34.83
2022-12-01T13:44:38.289Z,37.95
2022-12-01T13:47:33.441Z,36.05
2022-12-01T13:50:38.940Z,36.78
2022-12-01T13:53:26.893Z,30.13
2022-12-01T13:56:27.944Z,34.20
2022-12-01T13:58:56.452Z,36.13
2022-12-01T14:01:50.200Z,34.60
2022-12-01T14:04:29.613Z,34.83
2022-12-01T14:07:27.707Z,33.08
2022-12-01T14:10:07.351Z,33.28
2022-12-01T14:12:41.530Z,36.30
2022-12-01T14:15:25.537Z,32.53
2022-12-01T14:18:01.959Z,31.50
2022-12-01T14:20:33.636Z,33.28
2022-12-01T14:23:18.402Z,29.02
2022-12-01T14:26:10.669Z,27.83
2022-12-01T14:29:19.373Z,28.90
2022-12-01T14:32:20.465Z,24.52
2022-12-01T14:34:58.449Z,30.00
2022-12-01T14:37:35.086Z,25.02
2022-12-01T14:40:08.949Z,29.25
2022-12-01T14:42:59.254Z,23.50
2022-12-01T14:45:32.475Z,22.92
2022-12-01T14:48:04.246Z,22.98
2022-12-01T14:50:46.642Z,25.10
2022-12-01T14:53:26.822Z,26.85
2022-12-01T14:55:57.630Z,24.77
2022-12-01T14:58:28.697Z,24.45
2022-12-01T15:01:02.938Z,22.60
2022-12-01T15:03:36.850Z,24.92
2022-12-01T15:06:05.273Z,25.15
2022-12-01T15:08:53.211Z,24.40
2022-12-01T15:11:25.896Z,24.38
2022-12-01T15:13:55.690Z,24.38
2022-12-01T15:16:25.595Z,27.48
2022-12-01T15:18:55.377Z,24.92
2022-12-01T15:21:27.100Z,27.40
2022-12-01T15:24:00.791Z,28.27
2022-12-01T15:26:31.929Z,24.48
2022-12-01T15:29:15.929Z,26.45
2022-12-01T15:31:45.693Z,32.20
2022-12-01T15:34:18.180Z,29.08
2022-12-01T15:36:47.293Z,28.08
2022-12-01T15:39:21.659Z,29.02
2022-12-01T15:41:54.025Z,27.10
2022-12-01T15:44:27.393Z,32.38
2022-12-01T15:46:55.785Z,28.58
2022-12-01T15:49:30.051Z,27.42
2022-12-01T15:52:07.513Z,28.60
2022-12-01T15:54:38.013Z,28.60
2022-12-01T15:57:07.107Z,29.42
2022-12-01T15:59:39.230Z,27.33
2022-12-01T16:02:16.810Z,32.97
2022-12-01T16:04:48.026Z,30.92
2022-12-01T16:07:16.659Z,28.75
2022-12-01T16:09:56.551Z,30.13
2022-12-01T16:12:26.716Z,30.88
2022-12-01T16:15:13.997Z,25.42
2022-12-01T16:17:43.914Z,29.77
2022-12-01T16:20:24.743Z,29.90
2022-12-01T16:22:58.698Z,32.90
2022-12-01T16:25:35.394Z,35.13
2022-12-01T16:28:04.644Z,29.27
2022-12-01T16:30:37.446Z,32.45
2022-12-01T16:33:14.276Z,32.05
2022-12-01T16:35:44.228Z,32.63
2022-12-01T16:38:16.204Z,34.20
2022-12-01T16:40:44.863Z,30.58
2022-12-01T16:43:15.768Z,32.80
2022-12-01T16:45:44.452Z,34.88
2022-12-01T16:48:13.015Z,39.38
2022-12-01T16:50:41.474Z,36.33
2022-12-01T16:53:12.975Z,40.47
2022-12-01T16:55:47.402Z,41.50
2022-12-01T16:58:15.666Z,32.60
2022-12-01T17:00:43.685Z,30.67
2022-12-01T17:03:13.761Z,30.63
2022-12-01T17:05:41.878Z,26.52
2022-12-01T17:08:11.333Z,30.27
2022-12-01T17:10:41.178Z,31.40
2022-12-01T17:13:09.216Z,31.08
2022-12-01T17:15:41.713Z,33.85
2022-12-01T17:18:10.400Z,31.27
2022-12-01T17:20:38.626Z,29.77
2022-12-01T17:23:06.775Z,35.25
2022-12-01T17:25:36.483Z,32.55
2022-12-01T17:28:04.570Z,32.40
2022-12-01T17:30:32.673Z,27.90
2022-12-01T17:33:00.791Z,30.73
2022-12-01T17:35:28.802Z,32.42
2022-12-01T17:37:56.849Z,35.13
2022-12-01T17:40:25.139Z,32.15
2022-12-01T17:42:54.569Z,34.03
2022-12-01T17:45:22.586Z,33.15
2022-12-01T17:47:50.732Z,31.83
2022-12-01T17:50:18.865Z,32.33
2022-12-01T17:52:46.911Z,27.77
2022-12-01T17:55:14.898Z,31.55
2022-12-01T17:57:42.936Z,29.55
2022-12-01T18:00:15.659Z,28.80
2022-12-01T18:02:43.866Z,29.40
2022-12-01T18:05:12.018Z,28.65
2022-12-01T18:07:40.193Z,30.25
2022-12-01T18:10:08.623Z,29.58
2022-12-01T18:12:36.677Z,28.67
2022-12-01T18:15:05.513Z,32.78
2022-12-01T18:17:34.973Z,28.13
2022-12-01T18:20:04.032Z,28.40
2022-12-01T18:22:32.227Z,29.17
2022-12-01T18:25:00.267Z,27.27
2022-12-01T18:27:28.303Z,24.52
2022-12-01T18:29:56.323Z,21.95
2022-12-01T18:32:24.357Z,26.00
2022-12-01T18:34:53.774Z,26.52
2022-12-01T18:37:21.835Z,27.90
2022-12-01T18:39:49.975Z,25.02
2022-12-01T18:42:18.008Z,26.45
2022-12-01T18:44:46.023Z,28.58
2022-12-01T18:47:14.204Z,29.02
2022-12-01T18:49:42.289Z,30.40
2022-12-01T18:52:11.687Z,27.48
2022-12-01T18:54:39.738Z,25.85
2022-12-01T18:57:07.817Z,30.77
2022-12-01T18:59:35.861Z,28.05
2022-12-01T19:02:04.109Z,24.88
2022-12-01T19:04:32.535Z,29.42
2022-12-01T19:07:00.712Z,25.60
2022-12-01T19:09:30.184Z,29.13
2022-12-01T19:12:00.148Z,34.95
2022-12-01T19:14:29.433Z,29.17
2022-12-01T19:16:57.855Z,25.08
2022-12-01T19:19:26.337Z,22.92
2022-12-01T19:21:54.412Z,22.02
2022-12-01T19:24:22.495Z,25.80
2022-12-01T19:26:52.166Z,33.90
2022-12-01T19:29:20.362Z,24.33
2022-12-01T19:31:48.598Z,18.52
2022-12-01T19:34:16.717Z,24.40
2022-12-01T19:36:44.771Z,19.17
2022-12-01T19:39:12.814Z,19.52
2022-12-01T19:41:40.995Z,16.88
2022-12-01T19:44:11.324Z,17.77
2022-12-01T19:46:39.400Z,21.67
2022-12-01T19:49:07.714Z,19.38
2022-12-01T19:51:37.255Z,19.70
2022-12-01T19:54:06.599Z,19.08
2022-12-01T19:56:34.962Z,26.38
2022-12-01T19:59:04.958Z,21.90
2022-12-01T20:01:34.954Z,16.33
2022-12-01T20:04:03.077Z,21.05
2022-12-01T20:06:32.968Z,20.52
2022-12-01T20:09:03.503Z,21.30
2022-12-01T20:11:32.779Z,20.20
2022-12-01T20:14:01.210Z,31.10
2022-12-01T20:16:31.951Z,26.90
2022-12-01T20:19:03.775Z,19.13
2022-12-01T20:21:33.207Z,20.80
2022-12-01T20:24:02.991Z,18.67
2022-12-01T20:26:34.784Z,18.52
2022-12-01T20:29:04.949Z,20.30
2022-12-01T20:31:34.784Z,17.83
2022-12-01T20:34:07.645Z,23.17
2022-12-01T20:36:36.867Z,20.42
2022-12-01T20:39:06.323Z,18.38
2022-12-01T20:41:34.844Z,21.60
2022-12-01T20:44:07.168Z,21.45
2022-12-01T20:46:35.770Z,19.02
2022-12-01T20:49:05.559Z,23.58
2022-12-01T20:51:33.771Z,20.77
2022-12-01T20:56:50.439Z,17.38
2022-12-01T20:59:18.540Z,19.45
2022-12-01T21:01:46.563Z,19.83
2022-12-01T21:04:15.932Z,19.27
2022-12-01T21:06:43.958Z,22.10
2022-12-01T21:09:13.070Z,23.90
2022-12-01T21:12:04.064Z,20.52
2022-12-01T21:14:37.329Z,17.40
2022-12-01T21:17:16.233Z,17.55
2022-12-01T21:19:51.332Z,18.67
2022-12-01T21:22:20.070Z,16.88
2022-12-01T21:24:51.804Z,21.02
2022-12-01T21:27:20.284Z,17.50
2022-12-01T21:29:49.748Z,15.73
2022-12-01T21:32:20.619Z,22.38
2022-12-01T21:34:50.653Z,21.33
2022-12-01T21:37:22.599Z,18.60
2022-12-01T21:39:51.599Z,18.17
2022-12-01T21:42:21.718Z,19.70
2022-12-01T21:44:50.660Z,19.70
2022-12-01T21:47:22.439Z,16.85
2022-12-01T21:49:54.133Z,17.38
2022-12-01T21:52:24.938Z,20.90
2022-12-01T21:54:53.507Z,18.05
2022-12-01T21:57:38.555Z,18.55
2022-12-01T22:00:27.789Z,18.10
2022-12-01T22:03:18.007Z,19.67
2022-12-01T22:06:13.619Z,16.42
2022-12-01T22:08:41.159Z,17.17
2022-12-01T22:11:13.922Z,19.92
2022-12-01T22:13:44.041Z,21.73
2022-12-01T22:16:16.204Z,24.83
2022-12-01T22:18:47.681Z,22.25
2022-12-01T22:21:36.613Z,24.13
2022-12-01T22:24:26.494Z,21.92
2022-12-01T22:27:07.046Z,21.95
2022-12-01T22:29:40.683Z,22.65
2022-12-01T22:32:38.800Z,22.75
2022-12-01T22:35:22.557Z,27.15
2022-12-01T22:37:53.344Z,25.30
2022-12-01T22:40:38.410Z,22.10
2022-12-01T22:43:33.374Z,23.95
2022-12-01T22:46:17.607Z,22.30
2022-12-01T22:48:47.082Z,21.77
2022-12-01T22:51:37.298Z,22.30
2022-12-01T22:54:32.640Z,21.05
2022-12-01T22:57:09.187Z,21.65
2022-12-01T22:59:39.233Z,23.05
2022-12-01T23:02:20.609Z,24.98
2022-12-01T23:04:50.731Z,21.80
2022-12-01T23:07:31.619Z,24.50
2022-12-01T23:10:06.545Z,23.92
2022-12-01T23:12:36.710Z,26.25
2022-12-01T23:15:32.038Z,26.70
2022-12-01T23:18:03.517Z,25.25
2022-12-01T23:20:33.331Z,25.88
2022-12-01T23:23:03.856Z,25.65
2022-12-01T23:25:35.155Z,25.92
2022-12-01T23:28:07.450Z,23.90
2022-12-01T23:30:36.969Z,25.85
2022-12-01T23:33:12.117Z,27.92
2022-12-01T23:35:45.182Z,25.38
2022-12-01T23:38:17.423Z,27.00
2022-12-01T23:40:48.370Z,25.05
2022-12-01T23:43:20.565Z,28.58
2022-12-01T23:45:50.820Z,24.17
2022-12-01T23:48:23.168Z,26.15
2022-12-01T23:50:53.468Z,19.92
2022-12-01T23:53:28.595Z,21.42
2022-12-01T23:56:04.400Z,22.65
2022-12-01T23:58:32.557Z,23.48
